createdAt,value
2023-05-17T00:01:35.916Z,48.02
2023-05-17T00:04:04.003Z,48.29
2023-05-17T00:06:32.772Z,48.09
2023-05-17T00:09:00.962Z,48.00
2023-05-17T00:11:30.436Z,47.88
2023-05-17T00:13:58.474Z,48.20
2023-05-17T00:16:26.577Z,48.44
2023-05-17T00:18:54.718Z,48.19
2023-05-17T00:21:22.899Z,48.35
2023-05-17T00:23:50.900Z,48.26
2023-05-17T00:26:19.089Z,48.30
2023-05-17T00:28:48.765Z,48.10
2023-05-17T00:31:16.901Z,48.66
2023-05-17T00:33:46.583Z,48.54
2023-05-17T00:36:14.681Z,48.03
2023-05-17T00:38:42.709Z,48.27
2023-05-17T00:41:11.740Z,48.50
2023-05-17T00:43:39.825Z,47.99
2023-05-17T00:46:09.286Z,48.38
2023-05-17T00:48:37.519Z,48.67
2023-05-17T00:51:06.518Z,48.13
2023-05-17T00:53:36.553Z,48.43
2023-05-17T00:56:05.342Z,48.24
2023-05-17T00:58:34.036Z,48.44
2023-05-17T01:01:02.158Z,48.78
2023-05-17T01:03:31.734Z,48.03
2023-05-17T01:06:00.020Z,48.30
2023-05-17T01:08:28.690Z,48.33
2023-05-17T01:10:59.825Z,48.28
2023-05-17T01:13:31.191Z,48.59
2023-05-17T01:16:03.737Z,48.17
2023-05-17T01:18:36.287Z,48.42
2023-05-17T01:21:04.668Z,48.20
2023-05-17T01:23:37.883Z,48.73
2023-05-17T01:26:09.268Z,48.39
2023-05-17T01:28:39.162Z,48.27
2023-05-17T01:31:07.255Z,48.34
2023-05-17T01:33:35.337Z,48.56
2023-05-17T01:36:03.516Z,48.79
2023-05-17T01:38:31.642Z,48.30
2023-05-17T01:41:02.946Z,48.83
2023-05-17T01:43:33.163Z,48.76
2023-05-17T01:46:08.454Z,48.24
2023-05-17T01:48:37.985Z,48.74
2023-05-17T01:51:06.281Z,48.50
2023-05-17T01:53:37.421Z,48.58
2023-05-17T01:56:10.449Z,48.43
2023-05-17T01:58:43.343Z,48.67
2023-05-17T02:01:12.839Z,48.48
2023-05-17T02:03:41.073Z,48.51
2023-05-17T02:06:09.405Z,48.45
2023-05-17T02:08:37.490Z,48.23
2023-05-17T02:11:05.524Z,48.39
2023-05-17T02:13:33.731Z,48.26
2023-05-17T02:16:02.073Z,48.48
2023-05-17T02:18:32.923Z,48.14
2023-05-17T02:21:01.181Z,47.96
2023-05-17T02:23:29.237Z,48.95
2023-05-17T02:25:57.295Z,48.63
2023-05-17T02:28:25.337Z,48.21
2023-05-17T02:30:53.488Z,48.18
2023-05-17T02:33:21.663Z,48.29
2023-05-17T02:35:52.103Z,48.48
2023-05-17T02:38:20.871Z,48.23
2023-05-17T02:40:48.924Z,48.37
2023-05-17T02:43:16.986Z,48.39
2023-05-17T02:45:45.112Z,48.20
2023-05-17T02:48:14.477Z,48.82
2023-05-17T02:50:42.626Z,48.33
2023-05-17T02:53:12.103Z,48.56
2023-05-17T02:55:40.353Z,48.78
2023-05-17T02:58:08.398Z,48.63
2023-05-17T03:00:36.533Z,48.51
2023-05-17T03:03:04.686Z,48.55
2023-05-17T03:05:34.860Z,48.59
2023-05-17T03:08:02.994Z,48.77
2023-05-17T03:10:32.827Z,48.64
2023-05-17T03:13:01.149Z,48.19
2023-05-17T03:15:33.322Z,48.94
2023-05-17T03:18:01.567Z,48.94
2023-05-17T03:20:30.090Z,48.96
2023-05-17T03:22:58.215Z,48.58
2023-05-17T03:25:26.645Z,48.89
2023-05-17T03:27:56.381Z,48.43
2023-05-17T03:30:24.499Z,48.60
2023-05-17T03:32:54.152Z,48.83
2023-05-17T03:35:22.847Z,48.91
2023-05-17T03:37:55.163Z,48.61
2023-05-17T03:40:23.820Z,48.84
2023-05-17T03:42:51.957Z,48.25
2023-05-17T03:45:22.253Z,48.89
2023-05-17T03:47:50.558Z,48.21
2023-05-17T03:50:18.766Z,48.22
2023-05-17T03:52:46.881Z,48.67
2023-05-17T03:55:14.913Z,48.65
2023-05-17T03:57:43.059Z,48.70
2023-05-17T04:00:13.156Z,48.35
2023-05-17T04:02:45.596Z,48.63
2023-05-17T04:05:14.178Z,48.58
2023-05-17T04:07:44.571Z,48.69
2023-05-17T04:10:14.223Z,48.39
2023-05-17T04:12:42.473Z,48.36
2023-05-17T04:15:11.433Z,48.49
2023-05-17T04:17:41.400Z,48.36
2023-05-17T04:20:13.043Z,49.05
2023-05-17T04:22:41.835Z,48.50
2023-05-17T04:25:12.161Z,48.46
2023-05-17T04:27:40.937Z,48.42
2023-05-17T04:30:10.885Z,48.71
2023-05-17T04:32:39.862Z,48.57
2023-05-17T04:35:09.087Z,48.94
2023-05-17T04:37:40.442Z,48.30
2023-05-17T04:40:18.932Z,48.63
2023-05-17T04:42:48.778Z,48.47
2023-05-17T04:45:17.763Z,48.78
2023-05-17T04:47:46.282Z,48.71
2023-05-17T04:50:16.061Z,48.42
2023-05-17T04:52:45.660Z,48.71
2023-05-17T04:55:13.901Z,48.86
2023-05-17T04:57:42.097Z,48.81
2023-05-17T05:00:14.176Z,48.71
2023-05-17T05:02:46.698Z,48.64
2023-05-17T05:05:15.060Z,48.71
2023-05-17T05:07:46.435Z,48.39
2023-05-17T05:10:14.865Z,48.69
2023-05-17T05:12:44.835Z,49.05
2023-05-17T05:15:13.635Z,48.82
2023-05-17T05:17:44.962Z,48.64
2023-05-17T05:20:15.624Z,49.10
2023-05-17T05:22:46.054Z,48.71
2023-05-17T05:25:15.033Z,48.93
2023-05-17T05:27:43.097Z,48.71
2023-05-17T05:30:12.920Z,47.16
2023-05-17T05:32:44.046Z,47.28
2023-05-17T05:35:12.197Z,47.14
2023-05-17T05:37:40.333Z,47.49
2023-05-17T05:40:10.978Z,47.36
2023-05-17T05:42:39.740Z,47.37
2023-05-17T05:45:09.430Z,47.04
2023-05-17T05:47:37.696Z,47.94
2023-05-17T05:50:07.052Z,48.00
2023-05-17T05:52:36.572Z,47.62
2023-05-17T05:55:05.276Z,47.95
2023-05-17T05:57:35.824Z,47.57
2023-05-17T06:00:04.897Z,48.06
2023-05-17T06:02:40.913Z,48.11
2023-05-17T06:05:09.911Z,48.74
2023-05-17T06:07:38.026Z,48.66
2023-05-17T06:10:06.817Z,48.72
2023-05-17T06:12:36.237Z,48.19
2023-05-17T06:15:05.018Z,48.36
2023-05-17T06:17:33.120Z,48.03
2023-05-17T06:20:01.433Z,48.31
2023-05-17T06:22:29.490Z,48.35
2023-05-17T06:24:57.855Z,48.89
2023-05-17T06:27:26.433Z,48.23
2023-05-17T06:29:56.006Z,49.00
2023-05-17T06:32:24.053Z,48.39
2023-05-17T06:34:52.104Z,48.77
2023-05-17T06:37:20.172Z,48.83
2023-05-17T06:39:55.664Z,48.32
2023-05-17T06:42:28.002Z,48.25
2023-05-17T06:44:57.418Z,48.54
2023-05-17T06:47:25.655Z,48.33
2023-05-17T06:49:55.985Z,47.72
2023-05-17T06:52:24.097Z,48.06
2023-05-17T06:54:52.226Z,48.23
2023-05-17T06:57:20.330Z,48.05
2023-05-17T06:59:48.362Z,47.64
2023-05-17T07:02:17.858Z,47.76
2023-05-17T07:04:45.910Z,47.71
2023-05-17T07:07:14.060Z,47.88
2023-05-17T07:09:42.085Z,47.37
2023-05-17T07:12:10.354Z,47.67
2023-05-17T07:14:39.556Z,47.71
2023-05-17T07:17:07.638Z,46.99
2023-05-17T07:19:37.194Z,47.50
2023-05-17T07:22:05.866Z,46.90
2023-05-17T07:24:37.939Z,46.59
2023-05-17T07:27:06.606Z,46.74
2023-05-17T07:29:34.692Z,46.61
2023-05-17T07:32:02.719Z,46.90
2023-05-17T07:34:31.661Z,47.27
2023-05-17T07:37:01.061Z,47.30
2023-05-17T07:39:29.164Z,46.79
2023-05-17T07:41:57.206Z,46.74
2023-05-17T07:44:25.276Z,46.22
2023-05-17T07:46:53.372Z,46.28
2023-05-17T07:49:21.567Z,46.94
2023-05-17T07:51:49.652Z,46.72
2023-05-17T07:54:26.929Z,46.62
2023-05-17T07:56:55.424Z,46.03
2023-05-17T07:59:24.506Z,46.03
2023-05-17T08:01:52.616Z,45.77
2023-05-17T08:04:20.748Z,45.66
2023-05-17T08:06:50.097Z,45.60
2023-05-17T08:09:18.220Z,45.83
2023-05-17T08:11:47.965Z,46.03
2023-05-17T08:14:16.151Z,45.48
2023-05-17T08:16:44.436Z,45.28
2023-05-17T08:19:14.183Z,45.64
2023-05-17T08:21:42.466Z,45.88
2023-05-17T08:24:13.011Z,45.27
2023-05-17T08:26:41.561Z,45.74
2023-05-17T08:29:10.946Z,44.94
2023-05-17T08:31:38.992Z,45.74
2023-05-17T08:34:07.167Z,45.24
2023-05-17T08:36:35.548Z,45.07
2023-05-17T08:39:04.251Z,45.14
2023-05-17T08:41:32.856Z,45.58
2023-05-17T08:44:00.992Z,45.52
2023-05-17T08:46:31.460Z,49.32
2023-05-17T08:49:02.088Z,47.16
2023-05-17T08:51:30.462Z,45.97
2023-05-17T08:53:58.498Z,45.08
2023-05-17T08:56:27.159Z,45.52
2023-05-17T08:58:57.932Z,45.60
2023-05-17T09:01:27.923Z,45.42
2023-05-17T09:03:58.794Z,44.85
2023-05-17T09:06:26.873Z,44.70
2023-05-17T09:08:55.780Z,44.61
2023-05-17T09:11:28.109Z,44.54
2023-05-17T09:13:59.426Z,44.69
2023-05-17T09:16:29.143Z,44.63
2023-05-17T09:18:59.153Z,44.65
2023-05-17T09:21:27.696Z,44.87
2023-05-17T09:26:27.087Z,44.87
2023-05-17T09:28:55.123Z,44.73
2023-05-17T09:31:23.184Z,44.70
2023-05-17T09:33:51.716Z,44.46
2023-05-17T09:36:21.689Z,44.65
2023-05-17T09:38:56.401Z,44.05
2023-05-17T09:41:27.390Z,43.73
2023-05-17T09:43:57.872Z,43.53
2023-05-17T09:46:25.916Z,44.03
2023-05-17T09:48:57.324Z,44.08
2023-05-17T09:51:36.556Z,44.68
2023-05-17T09:54:04.707Z,44.72
2023-05-17T09:56:32.818Z,44.55
2023-05-17T09:59:02.196Z,45.40
2023-05-17T10:01:30.990Z,44.79
2023-05-17T10:04:01.209Z,45.46
2023-05-17T10:06:44.712Z,45.23
2023-05-17T10:09:15.935Z,45.27
2023-05-17T10:11:44.734Z,45.09
2023-05-17T10:14:13.701Z,44.58
2023-05-17T10:16:43.100Z,44.15
2023-05-17T10:19:11.544Z,43.42
2023-05-17T10:21:39.752Z,44.01
2023-05-17T10:24:08.118Z,43.79
2023-05-17T10:26:38.575Z,43.75
2023-05-17T10:29:06.650Z,43.78
2023-05-17T10:31:36.532Z,43.36
2023-05-17T10:34:05.756Z,43.60
2023-05-17T10:36:34.397Z,43.43
2023-05-17T10:39:02.478Z,43.60
2023-05-17T10:41:32.954Z,43.33
2023-05-17T10:44:02.715Z,43.44
2023-05-17T10:46:30.912Z,43.30
2023-05-17T10:49:00.383Z,43.58
2023-05-17T10:51:31.311Z,44.18
2023-05-17T10:54:18.423Z,43.83
2023-05-17T10:56:49.840Z,44.35
2023-05-17T10:59:23.205Z,44.25
2023-05-17T11:01:55.595Z,44.21
2023-05-17T11:04:26.136Z,44.68
2023-05-17T11:06:55.996Z,44.72
2023-05-17T11:09:24.931Z,44.64
2023-05-17T11:12:08.387Z,44.53
2023-05-17T11:14:49.991Z,45.03
2023-05-17T11:17:18.969Z,45.09
2023-05-17T11:20:13.393Z,44.68
2023-05-17T11:22:42.832Z,44.61
2023-05-17T11:25:12.470Z,44.81
2023-05-17T11:27:45.975Z,44.67
2023-05-17T11:30:24.587Z,44.85
2023-05-17T11:32:53.885Z,45.17
2023-05-17T11:35:25.186Z,44.68
2023-05-17T11:37:53.506Z,45.08
2023-05-17T11:40:28.837Z,45.01
2023-05-17T11:43:12.513Z,45.14
2023-05-17T11:45:46.213Z,44.94
2023-05-17T11:48:14.560Z,45.15
2023-05-17T11:50:42.686Z,44.91
2023-05-17T11:53:11.077Z,45.51
2023-05-17T11:55:39.833Z,45.04
2023-05-17T11:58:09.075Z,45.19
2023-05-17T12:00:38.836Z,45.19
2023-05-17T12:03:18.344Z,45.85
2023-05-17T12:05:47.383Z,44.91
2023-05-17T12:08:16.806Z,45.04
2023-05-17T12:10:51.839Z,45.05
2023-05-17T12:13:19.971Z,44.96
2023-05-17T12:15:53.693Z,45.34
2023-05-17T12:18:23.227Z,45.53
2023-05-17T12:20:55.552Z,45.48
2023-05-17T12:23:33.062Z,45.44
2023-05-17T12:26:08.449Z,45.63
2023-05-17T12:28:37.414Z,45.83
2023-05-17T12:31:06.687Z,46.00
2023-05-17T12:33:37.505Z,45.42
2023-05-17T12:36:06.268Z,45.72
2023-05-17T12:38:34.308Z,45.80
2023-05-17T12:41:02.593Z,45.57
2023-05-17T12:43:31.911Z,45.85
2023-05-17T12:46:07.472Z,45.58
2023-05-17T12:48:37.426Z,46.10
2023-05-17T12:51:11.706Z,46.08
2023-05-17T12:53:40.324Z,45.58
2023-05-17T12:56:08.778Z,45.75
2023-05-17T12:58:37.467Z,46.19
2023-05-17T13:01:07.461Z,45.95
2023-05-17T13:03:37.137Z,46.13
2023-05-17T13:06:06.451Z,45.60
2023-05-17T13:08:34.551Z,46.04
2023-05-17T13:11:12.751Z,46.00
2023-05-17T13:13:40.850Z,45.67
2023-05-17T13:16:08.925Z,46.38
2023-05-17T13:18:51.307Z,46.38
2023-05-17T13:21:19.808Z,45.79
2023-05-17T13:23:48.670Z,45.81
2023-05-17T13:26:17.244Z,45.93
2023-05-17T13:28:45.316Z,46.65
2023-05-17T13:31:13.476Z,46.55
2023-05-17T13:33:41.654Z,46.46
2023-05-17T13:36:12.184Z,46.19
2023-05-17T13:38:40.271Z,45.89
2023-05-17T13:41:09.198Z,46.48
2023-05-17T13:43:37.231Z,45.98
2023-05-17T13:46:05.258Z,45.94
2023-05-17T13:48:33.326Z,46.66
2023-05-17T13:51:02.005Z,46.61
2023-05-17T13:53:31.413Z,46.12
2023-05-17T13:55:59.457Z,46.29
2023-05-17T13:58:27.475Z,46.40
2023-05-17T14:00:55.536Z,46.55
2023-05-17T14:03:23.642Z,46.15
2023-05-17T14:05:52.875Z,46.85
2023-05-17T14:08:21.278Z,46.71
2023-05-17T14:10:50.726Z,46.52
2023-05-17T14:13:18.808Z,46.39
2023-05-17T14:15:46.853Z,46.36
2023-05-17T14:18:15.018Z,46.75
2023-05-17T14:20:43.108Z,46.42
2023-05-17T14:23:11.126Z,46.71
2023-05-17T14:25:39.970Z,46.69
2023-05-17T14:28:09.326Z,46.23
2023-05-17T14:30:37.424Z,46.47
2023-05-17T14:33:05.653Z,46.70
2023-05-17T14:35:33.773Z,45.44
2023-05-17T14:38:01.768Z,43.36
2023-05-17T14:40:30.074Z,43.07
2023-05-17T14:42:58.203Z,43.83
2023-05-17T14:45:27.660Z,44.52
2023-05-17T14:47:55.921Z,44.46
2023-05-17T14:50:23.997Z,44.64
2023-05-17T14:52:52.039Z,44.83
2023-05-17T14:55:20.245Z,44.57
2023-05-17T14:57:48.336Z,44.87
2023-05-17T15:00:17.608Z,44.92
2023-05-17T15:02:47.304Z,45.23
2023-05-17T15:05:15.380Z,44.58
2023-05-17T15:07:43.506Z,45.20
2023-05-17T15:10:13.081Z,44.90
2023-05-17T15:12:41.067Z,44.65
2023-05-17T15:15:10.382Z,44.76
2023-05-17T15:17:38.438Z,45.01
2023-05-17T15:20:09.515Z,44.96
2023-05-17T15:22:37.772Z,44.68
2023-05-17T15:25:06.571Z,45.16
2023-05-17T15:27:34.622Z,44.75
2023-05-17T15:30:02.919Z,44.72
2023-05-17T15:32:31.162Z,45.38
2023-05-17T15:34:59.411Z,44.99
2023-05-17T15:37:28.866Z,44.98
2023-05-17T15:39:57.179Z,44.77
2023-05-17T15:42:25.171Z,44.71
2023-05-17T15:44:53.161Z,44.72
2023-05-17T15:47:23.907Z,44.89
2023-05-17T15:49:57.833Z,44.77
2023-05-17T15:52:25.966Z,45.05
2023-05-17T15:54:55.296Z,44.87
2023-05-17T15:57:23.383Z,45.13
2023-05-17T15:59:51.351Z,45.15
2023-05-17T16:02:19.630Z,44.70
2023-05-17T16:04:47.680Z,45.11
2023-05-17T16:07:15.788Z,44.86
2023-05-17T16:09:43.804Z,44.83
2023-05-17T16:12:13.188Z,45.27
2023-05-17T16:14:41.244Z,44.92
2023-05-17T16:17:09.311Z,45.54
2023-05-17T16:19:37.407Z,45.14
2023-05-17T16:22:05.990Z,45.68
2023-05-17T16:24:33.996Z,44.92
2023-05-17T16:27:03.767Z,45.26
2023-05-17T16:29:39.750Z,45.47
2023-05-17T16:32:08.674Z,45.04
2023-05-17T16:34:36.677Z,45.50
2023-05-17T16:37:05.209Z,45.30
2023-05-17T16:39:33.526Z,45.33
2023-05-17T16:42:01.588Z,45.25
2023-05-17T16:44:29.625Z,45.48
2023-05-17T16:46:59.126Z,45.44
2023-05-17T16:49:27.207Z,45.59
2023-05-17T16:51:55.215Z,45.23
2023-05-17T16:54:23.238Z,45.39
2023-05-17T16:56:51.382Z,45.74
2023-05-17T16:59:19.390Z,45.09
2023-05-17T17:01:47.446Z,45.15
2023-05-17T17:04:17.103Z,45.11
2023-05-17T17:06:45.182Z,45.67
2023-05-17T17:09:13.197Z,45.57
2023-05-17T17:11:41.238Z,45.53
2023-05-17T17:14:09.347Z,45.06
2023-05-17T17:16:37.448Z,45.16
2023-05-17T17:19:05.569Z,43.80
2023-05-17T17:21:36.686Z,42.64
2023-05-17T17:24:05.640Z,43.57
2023-05-17T17:26:35.263Z,43.85
2023-05-17T17:29:04.010Z,44.22
2023-05-17T17:31:32.205Z,44.38
2023-05-17T17:34:00.345Z,43.84
2023-05-17T17:36:28.737Z,44.20
2023-05-17T17:38:58.214Z,43.94
2023-05-17T17:41:26.249Z,44.16
2023-05-17T17:43:54.382Z,44.32
2023-05-17T17:46:22.644Z,44.74
2023-05-17T17:48:50.845Z,44.36
2023-05-17T17:51:18.913Z,42.82
2023-05-17T17:53:48.851Z,41.80
2023-05-17T17:56:18.217Z,41.07
2023-05-17T17:58:46.509Z,41.06
2023-05-17T18:01:14.528Z,42.24
2023-05-17T18:03:42.614Z,42.68
2023-05-17T18:06:10.623Z,42.23
2023-05-17T18:08:38.711Z,42.23
2023-05-17T18:11:06.761Z,42.43
2023-05-17T18:13:36.384Z,42.29
2023-05-17T18:16:04.699Z,42.48
2023-05-17T18:18:32.795Z,42.44
2023-05-17T18:21:00.878Z,43.21
2023-05-17T18:23:28.905Z,42.88
2023-05-17T18:25:57.036Z,43.15
2023-05-17T18:28:38.238Z,42.99
2023-05-17T18:31:11.733Z,43.46
2023-05-17T18:33:39.797Z,43.22
2023-05-17T18:36:08.101Z,43.42
2023-05-17T18:38:36.519Z,43.84
2023-05-17T18:41:04.568Z,43.75
2023-05-17T18:43:32.674Z,43.65
2023-05-17T18:46:00.715Z,44.26
2023-05-17T18:48:30.106Z,44.29
2023-05-17T18:50:59.899Z,43.71
2023-05-17T18:53:29.300Z,43.77
2023-05-17T18:55:59.609Z,44.38
2023-05-17T18:58:27.603Z,43.74
2023-05-17T19:00:56.067Z,44.48
2023-05-17T19:03:24.457Z,44.03
2023-05-17T19:05:53.894Z,44.05
2023-05-17T19:08:21.908Z,44.45
2023-05-17T19:10:50.185Z,44.50
2023-05-17T19:13:18.209Z,44.23
2023-05-17T19:15:46.600Z,44.24
2023-05-17T19:18:14.730Z,44.41
2023-05-17T19:20:42.841Z,44.89
2023-05-17T19:23:12.269Z,44.59
2023-05-17T19:25:40.297Z,44.55
2023-05-17T19:28:08.380Z,44.80
2023-05-17T19:30:36.579Z,44.59
2023-05-17T19:33:04.939Z,44.42
2023-05-17T19:35:33.168Z,44.74
2023-05-17T19:38:01.222Z,44.58
2023-05-17T19:40:31.443Z,44.80
2023-05-17T19:43:01.644Z,44.62
2023-05-17T19:45:29.871Z,44.96
2023-05-17T19:47:57.958Z,44.58
2023-05-17T19:50:26.024Z,44.83
2023-05-17T19:52:54.824Z,44.59
2023-05-17T19:55:24.674Z,45.06
2023-05-17T19:57:54.107Z,45.13
2023-05-17T20:00:22.368Z,45.04
2023-05-17T20:02:50.509Z,44.71
2023-05-17T20:05:18.587Z,44.72
2023-05-17T20:07:46.873Z,44.82
2023-05-17T20:10:14.912Z,44.77
2023-05-17T20:12:43.886Z,44.73
2023-05-17T20:15:13.459Z,45.09
2023-05-17T20:17:42.149Z,45.04
2023-05-17T20:20:10.704Z,45.38
2023-05-17T20:22:41.062Z,44.77
2023-05-17T20:25:09.262Z,45.16
2023-05-17T20:27:37.292Z,45.27
2023-05-17T20:30:06.158Z,44.77
2023-05-17T20:32:35.785Z,44.85
2023-05-17T20:35:03.860Z,44.88
2023-05-17T20:37:31.919Z,44.92
2023-05-17T20:40:00.402Z,45.01
2023-05-17T20:42:29.076Z,45.00
2023-05-17T20:44:57.854Z,45.64
2023-05-17T20:47:26.143Z,45.44
2023-05-17T20:49:56.170Z,45.25
2023-05-17T20:52:38.172Z,45.20
2023-05-17T20:55:09.055Z,45.08
2023-05-17T20:57:37.122Z,45.57
2023-05-17T21:00:08.234Z,45.65
2023-05-17T21:02:36.434Z,45.24
2023-05-17T21:05:06.122Z,45.16
2023-05-17T21:07:34.962Z,45.74
2023-05-17T21:10:03.008Z,45.58
2023-05-17T21:12:31.054Z,45.56
2023-05-17T21:15:15.157Z,45.15
2023-05-17T21:17:44.469Z,45.17
2023-05-17T21:20:14.752Z,45.31
2023-05-17T21:22:42.827Z,45.89
2023-05-17T21:25:11.325Z,45.59
2023-05-17T21:27:39.673Z,45.39
2023-05-17T21:30:08.921Z,45.35
2023-05-17T21:32:37.121Z,45.47
2023-05-17T21:35:05.532Z,45.54
2023-05-17T21:37:37.072Z,45.64
2023-05-17T21:40:05.886Z,45.94
2023-05-17T21:42:34.009Z,45.99
2023-05-17T21:45:02.098Z,46.06
2023-05-17T21:47:30.128Z,45.66
2023-05-17T21:49:58.346Z,45.85
2023-05-17T21:52:26.388Z,45.81
2023-05-17T21:54:55.925Z,46.11
2023-05-17T21:57:24.038Z,46.17
2023-05-17T21:59:52.106Z,46.15
2023-05-17T22:02:20.759Z,45.98
2023-05-17T22:04:48.820Z,46.26
2023-05-17T22:07:16.889Z,46.21
2023-05-17T22:09:45.584Z,46.47
2023-05-17T22:12:15.105Z,46.68
2023-05-17T22:14:45.438Z,46.19
2023-05-17T22:17:13.545Z,46.45
2023-05-17T22:19:41.769Z,46.48
2023-05-17T22:22:09.861Z,46.71
2023-05-17T22:24:37.960Z,46.33
2023-05-17T22:27:06.339Z,46.25
2023-05-17T22:29:38.498Z,46.90
2023-05-17T22:32:07.032Z,46.35
2023-05-17T22:34:35.315Z,46.68
2023-05-17T22:37:03.763Z,46.38
2023-05-17T22:39:31.854Z,46.93
2023-05-17T22:42:00.103Z,47.20
2023-05-17T22:44:28.151Z,46.23
2023-05-17T22:46:57.816Z,46.58
2023-05-17T22:49:26.061Z,46.78
2023-05-17T22:51:54.471Z,47.06
2023-05-17T22:54:23.217Z,46.45
2023-05-17T22:56:51.288Z,46.59
2023-05-17T22:59:19.393Z,46.48
2023-05-17T23:01:47.526Z,46.85
2023-05-17T23:04:17.051Z,47.16
2023-05-17T23:06:45.156Z,47.16
2023-05-17T23:09:13.755Z,46.85
2023-05-17T23:11:41.817Z,47.23
2023-05-17T23:14:11.363Z,47.16
2023-05-17T23:16:39.489Z,47.18
2023-05-17T23:19:07.574Z,46.95
2023-05-17T23:21:37.510Z,47.15
2023-05-17T23:24:06.700Z,46.74
2023-05-17T23:26:34.806Z,46.65
2023-05-17T23:29:03.492Z,46.71
2023-05-17T23:31:31.751Z,46.86
2023-05-17T23:33:59.814Z,47.00
2023-05-17T23:36:27.922Z,46.57
2023-05-17T23:38:57.411Z,47.44
2023-05-17T23:41:26.126Z,47.12
2023-05-17T23:43:54.284Z,47.23
2023-05-17T23:46:22.554Z,46.87
2023-05-17T23:48:51.216Z,47.06
2023-05-17T23:51:20.146Z,46.94
2023-05-17T23:53:49.199Z,46.86
2023-05-17T23:56:18.671Z,47.16
2023-05-17T23:58:46.820Z,46.96
